Time;durP1;ratioP1;P1;durP2;ratioP2;P2;SDS_P1;SDS_P2;PMS_P1;PMS_P2;Temp;Humidity;BMP_temperature;BMP_pressure;BME280_temperature;BME280_humidity;BME280_pressure;Samples;Min_cycle;Max_cycle;Signal;HPM_P1;HPM_P2
2022/06/21 00:02:17;;;;;;;;;;;22.80;74.20;;;;;;5126671;28;19935;-96
2022/06/21 00:04:49;;;;;;;;;;;22.70;74.10;;;;;;5123714;28;22512;-94
2022/06/21 00:17:50;;;;;;;;;;;22.50;73.50;;;;;;5121244;28;19931;-94
2022/06/21 00:20:20;;;;;;;;;;;22.50;73.40;;;;;;5120210;28;19912;-95
2022/06/21 00:22:50;;;;;;;;;;;22.50;73.50;;;;;;5103754;28;19924;-95
2022/06/21 00:25:19;;;;;;;;;;;22.50;73.40;;;;;;5111780;28;19912;-95
2022/06/21 00:27:46;;;;;;;;;;;;;;;;;;5113624;28;19946;-94
2022/06/21 00:30:14;;;;;;;;;;;22.30;81.80;;;;;;5121268;28;19928;-94
2022/06/21 00:32:45;;;;;;;;;;;22.30;82.10;;;;;;5126524;28;20034;-94
2022/06/21 00:35:16;;;;;;;;;;;22.30;72.10;;;;;;5126374;28;19924;-94
2022/06/21 00:37:52;;;;;;;;;;;22.20;74.10;;;;;;5109131;27;20004;-95
2022/06/21 00:40:24;;;;;;;;;;;22.20;74.70;;;;;;5110315;28;19945;-93
2022/06/21 00:42:54;;;;;;;;;;;22.20;71.70;;;;;;5131318;27;19912;-96
2022/06/21 00:45:26;;;;;;;;;;;22.10;86.00;;;;;;5115584;27;19912;-96
2022/06/21 00:47:56;;;;;;;;;;;22.10;98.00;;;;;;5127804;27;19975;-95
2022/06/21 00:50:27;;;;;;;;;;;22.10;77.00;;;;;;5061733;27;1881525;-96
2022/06/21 00:52:57;;;;;;;;;;;22.10;71.40;;;;;;5113454;28;19931;-95
2022/06/21 00:55:28;;;;;;;;;;;21.70;70.80;;;;;;5106514;28;19924;-94
2022/06/21 00:57:56;;;;;;;;;;;22.00;71.00;;;;;;5113519;28;19928;-95
2022/06/21 01:00:25;;;;;;;;;;;21.90;70.70;;;;;;5123193;28;19939;-95
2022/06/21 01:02:52;;;;;;;;;;;21.90;70.50;;;;;;5100727;28;19927;-94
2022/06/21 01:05:22;;;;;;;;;;;21.90;70.00;;;;;;5110342;28;19938;-93
2022/06/21 01:07:49;;;;;;;;;;;21.80;69.80;;;;;;5121501;28;19995;-94
2022/06/21 01:10:18;;;;;;;;;;;21.80;69.70;;;;;;5120738;28;19931;-93
2022/06/21 01:12:48;;;;;;;;;;;21.80;69.60;;;;;;5118843;28;19946;-94
2022/06/21 01:15:17;;;;;;;;;;;21.80;69.60;;;;;;5106267;28;21080;-94
2022/06/21 01:17:45;;;;;;;;;;;21.70;69.40;;;;;;5130202;27;19950;-93
2022/06/21 01:20:15;;;;;;;;;;;21.60;69.10;;;;;;5131628;28;19920;-95
2022/06/21 01:22:48;;;;;;;;;;;21.70;69.00;;;;;;5121128;28;19924;-95
2022/06/21 01:25:26;;;;;;;;;;;21.60;68.90;;;;;;5128681;27;19966;-95
2022/06/21 01:27:56;;;;;;;;;;;21.60;68.80;;;;;;5115869;28;19924;-95
2022/06/21 01:30:23;;;;;;;;;;;21.50;68.70;;;;;;5110979;28;19966;-95
2022/06/21 01:32:50;;;;;;;;;;;21.50;68.60;;;;;;5116345;28;19929;-95
2022/06/21 01:35:23;;;;;;;;;;;21.50;68.70;;;;;;5127477;28;20379;-96
2022/06/21 01:37:50;;;;;;;;;;;21.40;69.20;;;;;;5125686;28;19908;-96
2022/06/21 01:40:18;;;;;;;;;;;21.40;68.60;;;;;;5128052;28;19937;-96
2022/06/21 01:42:47;;;;;;;;;;;21.40;68.50;;;;;;5112735;28;19911;-96
2022/06/21 01:45:17;;;;;;;;;;;21.30;68.40;;;;;;5146047;22;19961;-94
2022/06/21 01:47:47;;;;;;;;;;;21.30;68.40;;;;;;5130687;27;19920;-95
2022/06/21 01:50:14;;;;;;;;;;;21.30;68.40;;;;;;5135100;28;19912;-96
2022/06/21 01:52:44;;;;;;;;;;;21.20;68.00;;;;;;5116689;28;19923;-96
2022/06/21 01:55:14;;;;;;;;;;;21.20;68.00;;;;;;5097200;28;19912;-95
2022/06/21 01:57:41;;;;;;;;;;;21.20;68.00;;;;;;5128632;28;19998;-96
2022/06/21 02:00:08;;;;;;;;;;;21.10;67.90;;;;;;5098323;28;19946;-96
2022/06/21 02:02:42;;;;;;;;;;;21.10;67.90;;;;;;5112830;28;19920;-95
2022/06/21 02:05:12;;;;;;;;;;;21.10;68.00;;;;;;5113363;28;19934;-96
2022/06/21 02:07:41;;;;;;;;;;;21.00;67.90;;;;;;5126309;28;19912;-96
2022/06/21 02:10:13;;;;;;;;;;;21.00;67.60;;;;;;5128132;27;19920;-95
2022/06/21 02:12:42;;;;;;;;;;;21.00;67.60;;;;;;5113321;28;19976;-95
2022/06/21 02:15:12;;;;;;;;;;;20.90;67.60;;;;;;5115975;28;20112;-95
2022/06/21 02:17:42;;;;;;;;;;;20.90;67.50;;;;;;5130204;28;19908;-96
2022/06/21 02:20:12;;;;;;;;;;;20.90;67.50;;;;;;5112405;28;19936;-96
2022/06/21 02:22:40;;;;;;;;;;;20.80;67.30;;;;;;5112052;28;19912;-95
2022/06/21 02:25:09;;;;;;;;;;;20.80;67.30;;;;;;5127740;28;19926;-96
2022/06/21 02:27:36;;;;;;;;;;;20.80;67.40;;;;;;5092992;28;20297;-95
2022/06/21 02:30:07;;;;;;;;;;;20.70;67.10;;;;;;5092295;28;19952;-95
2022/06/21 02:32:36;;;;;;;;;;;20.70;67.10;;;;;;5117522;28;19991;-96
2022/06/21 02:35:07;;;;;;;;;;;20.70;67.10;;;;;;5115325;28;19931;-96
2022/06/21 02:37:35;;;;;;;;;;;20.60;67.00;;;;;;5093457;28;20862;-95
2022/06/21 02:40:05;;;;;;;;;;;20.60;67.10;;;;;;5111323;28;19947;-96
2022/06/21 02:42:33;;;;;;;;;;;20.60;67.10;;;;;;5115846;28;19908;-95
2022/06/21 02:45:07;;;;;;;;;;;20.60;67.10;;;;;;5093466;28;19992;-96
2022/06/21 02:47:38;;;;;;;;;;;20.50;66.90;;;;;;5096746;28;19942;-95
2022/06/21 02:50:19;;;;;;;;;;;20.50;66.60;;;;;;5113787;28;19938;-95
2022/06/21 02:52:46;;;;;;;;;;;20.50;66.70;;;;;;5117992;28;19919;-96
2022/06/21 02:55:26;;;;;;;;;;;20.50;66.90;;;;;;5113312;28;19908;-96
2022/06/21 02:57:56;;;;;;;;;;;20.40;66.70;;;;;;5111149;28;19919;-96
2022/06/21 03:00:24;;;;;;;;;;;20.40;66.70;;;;;;5111538;28;19920;-96
2022/06/21 03:02:51;;;;;;;;;;;20.40;66.60;;;;;;5100352;28;19911;-96
2022/06/21 03:05:22;;;;;;;;;;;20.40;66.70;;;;;;5094308;28;19960;-96
2022/06/21 03:07:53;;;;;;;;;;;20.30;66.60;;;;;;5113432;28;19926;-95
2022/06/21 03:10:22;;;;;;;;;;;20.30;66.70;;;;;;5097024;28;19908;-96
2022/06/21 03:12:50;;;;;;;;;;;20.20;66.60;;;;;;5127356;28;19912;-96
2022/06/21 03:15:17;;;;;;;;;;;20.20;66.50;;;;;;5112222;28;19913;-95
2022/06/21 03:17:47;;;;;;;;;;;20.20;66.50;;;;;;5100039;28;19994;-96
2022/06/21 03:20:14;;;;;;;;;;;20.20;66.50;;;;;;5099222;28;19912;-96
2022/06/21 03:22:43;;;;;;;;;;;20.20;66.60;;;;;;5126112;28;19954;-96
2022/06/21 03:25:26;;;;;;;;;;;20.10;66.50;;;;;;5114375;28;19912;-96
2022/06/21 03:27:54;;;;;;;;;;;20.10;66.50;;;;;;5112228;28;19935;-96
2022/06/21 03:30:22;;;;;;;;;;;20.00;66.40;;;;;;5115898;28;19931;-96
2022/06/21 03:32:50;;;;;;;;;;;20.00;66.40;;;;;;5110092;28;19920;-96
2022/06/21 03:35:17;;;;;;;;;;;20.00;66.40;;;;;;5110766;28;19916;-96
2022/06/21 03:37:46;;;;;;;;;;;20.00;66.50;;;;;;5091920;28;19912;-96
2022/06/21 03:43:04;;;;;;;;;;;19.90;66.40;;;;;;5109689;28;20106;-95
2022/06/21 03:45:52;;;;;;;;;;;19.90;66.50;;;;;;5103884;28;19923;-96
2022/06/21 03:48:22;;;;;;;;;;;19.80;66.50;;;;;;5107451;28;19928;-96
2022/06/21 03:51:05;;;;;;;;;;;19.80;66.50;;;;;;5092749;28;19924;-96
2022/06/21 03:53:35;;;;;;;;;;;19.80;66.60;;;;;;5126956;28;19916;-96
2022/06/21 03:56:04;;;;;;;;;;;19.70;66.70;;;;;;5088537;28;20014;-96
2022/06/21 03:58:38;;;;;;;;;;;19.70;66.80;;;;;;5097653;28;19908;-96
2022/06/21 04:01:07;;;;;;;;;;;19.70;66.80;;;;;;5113419;28;19912;-96
2022/06/21 04:03:43;;;;;;;;;;;19.70;66.80;;;;;;5096231;28;19950;-96
2022/06/21 04:06:12;;;;;;;;;;;19.60;66.80;;;;;;5104419;28;19912;-96
2022/06/21 04:08:44;;;;;;;;;;;19.60;66.90;;;;;;5115376;28;19934;-96
2022/06/21 04:11:15;;;;;;;;;;;19.60;67.10;;;;;;5114442;28;19912;-96
2022/06/21 04:13:45;;;;;;;;;;;19.60;67.10;;;;;;5125799;28;19930;-96
2022/06/21 04:16:16;;;;;;;;;;;19.60;67.20;;;;;;5093805;28;19940;-96
2022/06/21 04:18:46;;;;;;;;;;;19.50;67.20;;;;;;5117103;28;19912;-96
2022/06/21 04:21:16;;;;;;;;;;;19.50;67.30;;;;;;5127144;28;19912;-96
2022/06/21 04:23:46;;;;;;;;;;;19.50;67.40;;;;;;5118470;28;19912;-96
2022/06/21 04:26:16;;;;;;;;;;;19.50;67.50;;;;;;5115837;28;19912;-96
2022/06/21 04:28:45;;;;;;;;;;;19.40;67.40;;;;;;5120435;28;19915;-96
2022/06/21 04:31:15;;;;;;;;;;;19.40;68.20;;;;;;5109321;28;19908;-96
2022/06/21 04:33:45;;;;;;;;;;;19.40;67.60;;;;;;5114316;27;19976;-96
2022/06/21 04:36:14;;;;;;;;;;;19.40;67.60;;;;;;5128766;27;19927;-96
2022/06/21 04:38:46;;;;;;;;;;;19.40;67.70;;;;;;5111647;27;19928;-96
2022/06/21 04:41:18;;;;;;;;;;;19.30;67.60;;;;;;5111443;28;20032;-96
2022/06/21 04:46:25;;;;;;;;;;;19.30;67.80;;;;;;5038201;28;19925;-79
2022/06/21 04:48:55;;;;;;;;;;;19.30;68.10;;;;;;5062058;28;19974;-80
2022/06/21 04:51:24;;;;;;;;;;;19.30;68.10;;;;;;5066998;28;19928;-83
2022/06/21 04:53:52;;;;;;;;;;;19.20;68.00;;;;;;5067808;28;19930;-79
2022/06/21 04:56:26;;;;;;;;;;;19.20;68.00;;;;;;5081714;28;19924;-82
2022/06/21 04:58:53;;;;;;;;;;;19.20;68.20;;;;;;5070915;28;19925;-83
2022/06/21 05:01:33;;;;;;;;;;;19.20;68.20;;;;;;5067279;28;19987;-85
2022/06/21 05:04:02;;;;;;;;;;;19.20;68.30;;;;;;5079069;28;19982;-82
2022/06/21 05:06:29;;;;;;;;;;;19.20;68.20;;;;;;5066703;28;19925;-80
2022/06/21 05:08:57;;;;;;;;;;;19.10;68.10;;;;;;5068789;28;20409;-79
2022/06/21 05:11:25;;;;;;;;;;;19.10;68.10;;;;;;5080501;28;19932;-80
2022/06/21 05:13:54;;;;;;;;;;;19.00;67.40;;;;;;5068340;28;19925;-80
2022/06/21 05:16:24;;;;;;;;;;;19.00;67.60;;;;;;5063736;28;20395;-81
2022/06/21 05:18:52;;;;;;;;;;;18.90;67.70;;;;;;5068507;28;20079;-81
2022/06/21 05:21:21;;;;;;;;;;;18.90;67.70;;;;;;5069269;28;19972;-81
2022/06/21 05:23:49;;;;;;;;;;;18.90;67.70;;;;;;5063300;28;19936;-81
2022/06/21 05:26:17;;;;;;;;;;;18.90;67.70;;;;;;5068454;28;19956;-80
2022/06/21 05:28:48;;;;;;;;;;;18.80;67.70;;;;;;5080278;28;19924;-80
2022/06/21 05:31:19;;;;;;;;;;;18.80;67.70;;;;;;5063549;28;21095;-80
2022/06/21 05:33:48;;;;;;;;;;;18.70;67.60;;;;;;5072385;28;20002;-80
2022/06/21 05:36:18;;;;;;;;;;;18.80;67.90;;;;;;5067752;28;19932;-80
2022/06/21 05:38:50;;;;;;;;;;;18.70;67.90;;;;;;5069213;28;19928;-81
2022/06/21 05:41:30;;;;;;;;;;;18.60;67.90;;;;;;5076940;28;19943;-80
2022/06/21 05:44:01;;;;;;;;;;;18.70;68.20;;;;;;5077838;28;20426;-81
2022/06/21 05:46:30;;;;;;;;;;;18.60;68.10;;;;;;5076523;28;19959;-81
2022/06/21 05:48:59;;;;;;;;;;;18.60;68.10;;;;;;5077636;28;19928;-80
2022/06/21 05:51:27;;;;;;;;;;;18.60;68.10;;;;;;5080160;28;20605;-81
2022/06/21 05:53:56;;;;;;;;;;;18.60;68.10;;;;;;5092999;28;19932;-81
2022/06/21 05:56:24;;;;;;;;;;;18.60;68.20;;;;;;5070842;28;19948;-81
2022/06/21 05:58:54;;;;;;;;;;;18.60;68.20;;;;;;5076860;28;19929;-80
2022/06/21 06:01:25;;;;;;;;;;;18.60;68.20;;;;;;5078426;28;20386;-82
2022/06/21 06:03:55;;;;;;;;;;;18.50;68.20;;;;;;5076632;28;19960;-80
2022/06/21 06:06:22;;;;;;;;;;;18.60;68.40;;;;;;5076949;28;20370;-80
2022/06/21 06:08:50;;;;;;;;;;;18.50;68.30;;;;;;5077673;28;20361;-81
2022/06/21 06:11:19;;;;;;;;;;;18.50;68.40;;;;;;5076150;28;19934;-80
2022/06/21 06:13:47;;;;;;;;;;;18.50;68.50;;;;;;5075769;28;20237;-80
2022/06/21 06:16:18;;;;;;;;;;;18.60;68.60;;;;;;5076406;28;19924;-80
2022/06/21 06:18:49;;;;;;;;;;;18.60;68.80;;;;;;5072566;28;19925;-81
2022/06/21 06:21:19;;;;;;;;;;;18.60;68.80;;;;;;5074711;28;19924;-81
2022/06/21 06:23:48;;;;;;;;;;;18.50;68.80;;;;;;5070774;28;19987;-81
2022/06/21 06:26:16;;;;;;;;;;;18.50;68.90;;;;;;5075350;28;19928;-81
2022/06/21 06:28:46;;;;;;;;;;;18.50;69.10;;;;;;5092259;28;19924;-81
2022/06/21 06:31:17;;;;;;;;;;;18.50;69.30;;;;;;5071962;28;19931;-80
2022/06/21 06:33:46;;;;;;;;;;;18.50;69.40;;;;;;5077524;28;19924;-80
2022/06/21 06:36:24;;;;;;;;;;;18.50;69.50;;;;;;5086801;28;19948;-80
2022/06/21 06:38:52;;;;;;;;;;;18.60;69.60;;;;;;5080918;28;20395;-80
2022/06/21 06:41:23;;;;;;;;;;;18.60;69.70;;;;;;5076337;28;19925;-81
2022/06/21 06:43:54;;;;;;;;;;;18.70;69.80;;;;;;5074341;28;20011;-80
2022/06/21 06:46:26;;;;;;;;;;;18.60;69.70;;;;;;5079230;28;19925;-80
2022/06/21 06:48:55;;;;;;;;;;;18.70;69.80;;;;;;5076375;28;19974;-81
2022/06/21 06:51:38;;;;;;;;;;;18.70;69.70;;;;;;5073173;28;19928;-80
2022/06/21 06:54:10;;;;;;;;;;;18.70;69.60;;;;;;5075687;28;20015;-80
2022/06/21 06:56:47;;;;;;;;;;;18.80;69.40;;;;;;5070714;28;19925;-80
2022/06/21 06:59:16;;;;;;;;;;;18.70;69.50;;;;;;5077951;28;19966;-80
2022/06/21 07:01:44;;;;;;;;;;;18.70;69.50;;;;;;5075120;28;20010;-80
2022/06/21 07:04:14;;;;;;;;;;;18.70;69.50;;;;;;5069838;28;19931;-80
2022/06/21 07:06:44;;;;;;;;;;;18.70;69.70;;;;;;5072228;28;19924;-80
2022/06/21 07:09:15;;;;;;;;;;;18.80;69.80;;;;;;5076992;28;19928;-80
2022/06/21 07:11:49;;;;;;;;;;;18.80;69.60;;;;;;5074202;28;20298;-81
2022/06/21 07:14:19;;;;;;;;;;;18.80;69.80;;;;;;5067423;28;19963;-80
2022/06/21 07:16:48;;;;;;;;;;;18.80;69.80;;;;;;5076292;28;19959;-80
2022/06/21 07:19:15;;;;;;;;;;;18.80;69.80;;;;;;5084726;28;20365;-81
2022/06/21 07:21:44;;;;;;;;;;;18.80;69.70;;;;;;5069964;28;20426;-81
2022/06/21 07:24:14;;;;;;;;;;;18.80;69.70;;;;;;5076059;28;19940;-80
2022/06/21 07:26:44;;;;;;;;;;;18.90;69.70;;;;;;5075831;28;19924;-80
2022/06/21 07:29:14;;;;;;;;;;;18.90;69.80;;;;;;5091823;28;19932;-80
2022/06/21 07:31:44;;;;;;;;;;;18.90;69.80;;;;;;5073811;28;20047;-81
2022/06/21 07:34:13;;;;;;;;;;;18.90;69.80;;;;;;5091341;28;19932;-80
2022/06/21 07:36:44;;;;;;;;;;;18.90;69.70;;;;;;5073541;28;20019;-80
2022/06/21 07:39:14;;;;;;;;;;;18.90;69.70;;;;;;5071628;28;19939;-80
2022/06/21 07:41:44;;;;;;;;;;;18.90;69.80;;;;;;5075687;28;19950;-81
2022/06/21 07:44:14;;;;;;;;;;;18.90;69.90;;;;;;5074096;28;19928;-80
2022/06/21 07:46:44;;;;;;;;;;;18.90;69.90;;;;;;5077757;28;19992;-81
2022/06/21 07:49:14;;;;;;;;;;;18.90;69.70;;;;;;5082818;28;20346;-81
2022/06/21 07:51:43;;;;;;;;;;;19.00;69.90;;;;;;5073429;28;19956;-80
2022/06/21 08:20:57;;;;;;;;;;;19.20;70.70;;;;;;5763954;22;19925;-81
2022/06/21 09:24:06;;;;;;;;;;;19.60;71.90;;;;;;4997967;28;19920;-82
2022/06/21 09:26:35;;;;;;;;;;;19.60;71.90;;;;;;5027110;28;19929;-80
2022/06/21 09:29:14;;;;;;;;;;;19.70;72.10;;;;;;5041312;28;19975;-80
2022/06/21 09:31:45;;;;;;;;;;;19.70;72.40;;;;;;5058871;28;20003;-80
2022/06/21 09:34:15;;;;;;;;;;;19.70;72.20;;;;;;5039514;28;19924;-80
2022/06/21 09:36:47;;;;;;;;;;;19.70;72.10;;;;;;5059617;28;19925;-80
2022/06/21 09:39:18;;;;;;;;;;;19.70;72.30;;;;;;5055464;28;20351;-80
2022/06/21 09:41:56;;;;;;;;;;;19.80;72.20;;;;;;5055058;28;20016;-81
2022/06/21 09:44:28;;;;;;;;;;;19.80;72.00;;;;;;5056317;28;19972;-80
2022/06/21 09:47:01;;;;;;;;;;;19.80;72.00;;;;;;5057762;28;20427;-80
2022/06/21 09:49:34;;;;;;;;;;;19.80;72.00;;;;;;5054928;28;19928;-81
2022/06/21 09:52:06;;;;;;;;;;;19.80;71.90;;;;;;5052964;28;20484;-80
2022/06/21 09:54:35;;;;;;;;;;;19.80;71.90;;;;;;5055551;28;19932;-81
2022/06/21 09:57:18;;;;;;;;;;;19.90;72.60;;;;;;5059797;28;19925;-81
2022/06/21 09:59:48;;;;;;;;;;;19.90;72.70;;;;;;5036194;28;19932;-81
2022/06/21 10:02:19;;;;;;;;;;;19.90;72.60;;;;;;5054342;28;19925;-80
2022/06/21 10:04:51;;;;;;;;;;;20.00;72.90;;;;;;5057096;28;19948;-80
2022/06/21 10:07:22;;;;;;;;;;;20.00;73.20;;;;;;5052062;28;19928;-81
2022/06/21 10:09:54;;;;;;;;;;;20.00;73.10;;;;;;5053822;28;19964;-81
2022/06/21 10:12:27;;;;;;;;;;;20.00;73.20;;;;;;5055411;28;20376;-80
2022/06/21 10:15:21;;;;;;;;;;;20.10;73.50;;;;;;5055667;28;20442;-80
2022/06/21 10:18:01;;;;;;;;;;;20.10;73.50;;;;;;5034826;28;20303;-80
2022/06/21 10:20:43;;;;;;;;;;;20.20;73.90;;;;;;5050714;28;19929;-80
2022/06/21 10:23:16;;;;;;;;;;;20.20;73.90;;;;;;5051341;28;20020;-80
2022/06/21 10:25:48;;;;;;;;;;;20.20;73.80;;;;;;5053687;28;19925;-81
2022/06/21 10:28:35;;;;;;;;;;;20.30;74.40;;;;;;5055271;28;19928;-81
2022/06/21 10:31:13;;;;;;;;;;;20.30;74.30;;;;;;5052792;28;19925;-81
2022/06/21 10:33:46;;;;;;;;;;;20.40;75.50;;;;;;5051366;28;19933;-80
2022/06/21 10:36:21;;;;;;;;;;;20.50;75.50;;;;;;5035520;28;20410;-82
2022/06/21 10:39:02;;;;;;;;;;;20.50;75.70;;;;;;5054154;28;19935;-81
2022/06/21 10:41:35;;;;;;;;;;;20.50;75.40;;;;;;5053550;28;19924;-80
2022/06/21 10:44:20;;;;;;;;;;;20.60;75.90;;;;;;5053048;28;19928;-79
2022/06/21 10:46:49;;;;;;;;;;;20.60;76.60;;;;;;5054415;28;20395;-80
2022/06/21 10:49:35;;;;;;;;;;;20.60;77.60;;;;;;5053111;28;19925;-80
2022/06/21 10:52:16;;;;;;;;;;;20.70;76.90;;;;;;5046051;28;19964;-81
2022/06/21 10:54:54;;;;;;;;;;;20.70;76.50;;;;;;5049455;28;19925;-78
2022/06/21 10:57:28;;;;;;;;;;;20.80;77.50;;;;;;5046707;28;19974;-81
2022/06/21 11:03:19;;;;;;;;;;;20.80;78.40;;;;;;5035873;28;20351;-81
2022/06/21 11:05:49;;;;;;;;;;;20.90;79.00;;;;;;5054236;28;19937;-80
2022/06/21 11:08:30;;;;;;;;;;;20.90;77.90;;;;;;5056430;28;19924;-81
2022/06/21 11:10:59;;;;;;;;;;;21.00;79.20;;;;;;5034963;28;20337;-80
2022/06/21 11:13:30;;;;;;;;;;;21.00;78.20;;;;;;5047128;28;19964;-82
2022/06/21 11:16:02;;;;;;;;;;;21.10;79.40;;;;;;5052535;28;19931;-82
2022/06/21 11:18:37;;;;;;;;;;;21.10;79.00;;;;;;5047270;28;19940;-80
2022/06/21 11:21:07;;;;;;;;;;;21.10;79.20;;;;;;5034781;28;20010;-80
2022/06/21 11:23:41;;;;;;;;;;;21.10;79.10;;;;;;5052170;28;19925;-81
2022/06/21 11:26:13;;;;;;;;;;;21.20;78.60;;;;;;5052195;28;19983;-81
2022/06/21 11:28:44;;;;;;;;;;;21.30;80.30;;;;;;5054028;28;19933;-83
2022/06/21 11:31:14;;;;;;;;;;;21.30;80.90;;;;;;5051505;28;19924;-82
2022/06/21 11:33:50;;;;;;;;;;;21.40;81.80;;;;;;5045453;28;20287;-81
2022/06/21 11:36:20;;;;;;;;;;;21.50;82.30;;;;;;5048462;28;20418;-82
2022/06/21 11:38:54;;;;;;;;;;;21.50;81.10;;;;;;5055392;28;19939;-83
2022/06/21 11:44:31;;;;;;;;;;;21.60;81.20;;;;;;4992228;28;19931;-83
2022/06/21 11:47:02;;;;;;;;;;;21.60;80.80;;;;;;5002259;28;20415;-82
2022/06/21 11:49:48;;;;;;;;;;;21.60;80.20;;;;;;5052956;28;20386;-83
2022/06/21 11:52:29;;;;;;;;;;;21.60;80.50;;;;;;5098187;22;20043;-81
2022/06/21 11:55:05;;;;;;;;;;;21.70;80.90;;;;;;4961398;28;19930;-84
2022/06/21 11:57:42;;;;;;;;;;;21.70;80.40;;;;;;4964149;28;20392;-84
2022/06/21 12:00:11;;;;;;;;;;;21.90;81.80;;;;;;4982144;28;20443;-84
2022/06/21 12:02:45;;;;;;;;;;;21.90;81.10;;;;;;4965866;28;20392;-84
2022/06/21 12:05:22;;;;;;;;;;;22.00;80.70;;;;;;4957323;28;20017;-85
2022/06/21 12:07:54;;;;;;;;;;;22.00;81.20;;;;;;4970200;28;20021;-83
2022/06/21 12:10:22;;;;;;;;;;;22.00;81.00;;;;;;4964718;28;20017;-84
2022/06/21 12:12:54;;;;;;;;;;;22.10;80.80;;;;;;4955980;28;20028;-84
2022/06/21 12:15:30;;;;;;;;;;;22.10;80.70;;;;;;4971626;28;19927;-84
2022/06/21 12:17:58;;;;;;;;;;;22.20;81.70;;;;;;4967496;28;20017;-85
2022/06/21 12:20:30;;;;;;;;;;;22.30;81.50;;;;;;4957809;28;19996;-84
2022/06/21 12:22:59;;;;;;;;;;;22.40;81.80;;;;;;4966632;28;19931;-84
2022/06/21 12:25:26;;;;;;;;;;;22.50;81.40;;;;;;4958965;28;19936;-84
2022/06/21 12:27:58;;;;;;;;;;;22.50;80.90;;;;;;4948925;28;20029;-85
2022/06/21 12:30:26;;;;;;;;;;;22.50;80.60;;;;;;4968042;28;19926;-85
2022/06/21 12:32:56;;;;;;;;;;;22.50;81.20;;;;;;4963894;28;20265;-85
2022/06/21 12:35:39;;;;;;;;;;;22.50;80.80;;;;;;4965579;28;20017;-85
2022/06/21 12:38:11;;;;;;;;;;;22.60;81.40;;;;;;4965210;28;20440;-85
2022/06/21 12:40:42;;;;;;;;;;;22.60;81.60;;;;;;4964980;28;20335;-84
2022/06/21 12:43:25;;;;;;;;;;;22.70;81.70;;;;;;4961352;28;19930;-85
2022/06/21 12:45:56;;;;;;;;;;;22.80;82.40;;;;;;4967063;28;20429;-85
2022/06/21 12:48:32;;;;;;;;;;;22.80;81.90;;;;;;4959821;28;19981;-86
2022/06/21 12:51:04;;;;;;;;;;;23.00;82.10;;;;;;4943106;28;19927;-85
2022/06/21 12:53:47;;;;;;;;;;;23.10;81.40;;;;;;4938669;28;19927;-85
2022/06/21 12:56:18;;;;;;;;;;;23.00;81.70;;;;;;4966731;28;19982;-85
2022/06/21 12:58:59;;;;;;;;;;;23.10;81.90;;;;;;4961353;28;21036;-84
2022/06/21 13:01:30;;;;;;;;;;;23.20;81.80;;;;;;4965678;28;19977;-85
2022/06/21 13:04:06;;;;;;;;;;;23.20;81.60;;;;;;4966642;28;20407;-85
2022/06/21 13:06:48;;;;;;;;;;;23.30;81.60;;;;;;4952995;28;19926;-84
2022/06/21 13:09:23;;;;;;;;;;;23.30;81.80;;;;;;4946164;28;19934;-84
2022/06/21 13:12:11;;;;;;;;;;;23.50;81.60;;;;;;4964057;28;19971;-84
2022/06/21 13:14:47;;;;;;;;;;;23.50;82.00;;;;;;4955424;28;19956;-85
2022/06/21 13:17:22;;;;;;;;;;;23.50;81.30;;;;;;4955885;28;20009;-85
2022/06/21 13:19:55;;;;;;;;;;;23.60;82.10;;;;;;4967250;28;20028;-84
2022/06/21 13:22:30;;;;;;;;;;;23.70;81.90;;;;;;4963101;28;19926;-85
2022/06/21 13:25:03;;;;;;;;;;;23.70;81.40;;;;;;4960964;28;19931;-85
2022/06/21 13:27:40;;;;;;;;;;;23.70;81.40;;;;;;4966034;28;20032;-84
2022/06/21 13:30:28;;;;;;;;;;;23.80;82.00;;;;;;4958114;28;19927;-84
2022/06/21 13:32:56;;;;;;;;;;;23.90;81.50;;;;;;4968643;28;19930;-85
2022/06/21 13:35:27;;;;;;;;;;;23.90;81.70;;;;;;4968586;28;19938;-84
2022/06/21 13:37:59;;;;;;;;;;;24.00;82.00;;;;;;4960492;28;20387;-85
2022/06/21 13:40:30;;;;;;;;;;;24.00;81.80;;;;;;4968824;28;20295;-85
2022/06/21 13:42:59;;;;;;;;;;;24.10;81.90;;;;;;4957485;28;20010;-85
2022/06/21 13:45:36;;;;;;;;;;;24.10;81.50;;;;;;5003270;28;19931;-85
2022/06/21 13:48:07;;;;;;;;;;;24.10;81.50;;;;;;4973799;28;19926;-84
2022/06/21 13:50:36;;;;;;;;;;;24.10;81.20;;;;;;4972219;28;20377;-84
2022/06/21 13:53:07;;;;;;;;;;;24.20;81.60;;;;;;4968826;28;20348;-85
2022/06/21 13:55:41;;;;;;;;;;;24.20;81.70;;;;;;4966821;28;20016;-84
2022/06/21 13:58:15;;;;;;;;;;;24.30;81.60;;;;;;4961023;28;19969;-84
2022/06/21 14:00:45;;;;;;;;;;;24.40;81.70;;;;;;4965653;28;19980;-84
2022/06/21 14:03:15;;;;;;;;;;;24.40;81.50;;;;;;4963345;28;19926;-84
2022/06/21 14:05:45;;;;;;;;;;;24.50;81.40;;;;;;4965132;28;19994;-84
2022/06/21 14:08:13;;;;;;;;;;;;;;;;;;4974321;28;20374;-84
2022/06/21 14:10:48;;;;;;;;;;;24.60;80.50;;;;;;4954120;28;19930;-84
2022/06/21 14:13:19;;;;;;;;;;;24.60;81.60;;;;;;4964116;28;19957;-85
2022/06/21 14:15:49;;;;;;;;;;;24.70;81.40;;;;;;4976331;28;19966;-85
2022/06/21 14:18:18;;;;;;;;;;;24.70;81.30;;;;;;4958694;28;20013;-85
2022/06/21 14:20:48;;;;;;;;;;;24.80;80.60;;;;;;4967809;28;19931;-85
2022/06/21 14:23:20;;;;;;;;;;;24.90;80.80;;;;;;4966664;28;19926;-84
2022/06/21 14:25:52;;;;;;;;;;;24.90;81.00;;;;;;4968580;28;19926;-85
2022/06/21 14:28:23;;;;;;;;;;;24.90;80.70;;;;;;4963023;28;19930;-86
2022/06/21 14:30:53;;;;;;;;;;;24.90;80.70;;;;;;4968901;28;20345;-85
2022/06/21 14:33:27;;;;;;;;;;;25.00;80.60;;;;;;4959795;28;19930;-85
2022/06/21 14:35:57;;;;;;;;;;;25.00;80.30;;;;;;4951994;28;19934;-85
2022/06/21 14:38:26;;;;;;;;;;;25.00;80.20;;;;;;4957887;28;19937;-85
2022/06/21 14:40:57;;;;;;;;;;;25.00;80.50;;;;;;4978039;28;19926;-85
2022/06/21 14:43:28;;;;;;;;;;;25.10;80.60;;;;;;4969197;28;19956;-84
2022/06/21 14:45:57;;;;;;;;;;;25.20;80.70;;;;;;4965233;28;19970;-84
2022/06/21 14:48:28;;;;;;;;;;;25.30;80.60;;;;;;4956105;28;19926;-84
2022/06/21 14:50:57;;;;;;;;;;;25.30;80.70;;;;;;4970042;28;19926;-83
2022/06/21 14:53:38;;;;;;;;;;;25.40;80.50;;;;;;4954893;28;19930;-84
2022/06/21 14:56:12;;;;;;;;;;;25.50;80.40;;;;;;4962398;28;19980;-84
2022/06/21 14:58:46;;;;;;;;;;;25.60;79.80;;;;;;4971014;28;20184;-83
2022/06/21 15:01:21;;;;;;;;;;;25.60;79.70;;;;;;4968355;28;19926;-84
2022/06/21 15:03:52;;;;;;;;;;;25.60;80.00;;;;;;4971095;28;19926;-83
2022/06/21 15:06:25;;;;;;;;;;;25.70;79.80;;;;;;4957157;28;19972;-84
2022/06/21 15:08:54;;;;;;;;;;;25.70;79.90;;;;;;4954864;28;19926;-83
2022/06/21 15:14:12;;;;;;;;;;;25.70;79.50;;;;;;4967103;28;19934;-84
2022/06/21 15:16:47;;;;;;;;;;;25.70;79.40;;;;;;4971677;28;19930;-83
2022/06/21 15:22:01;;;;;;;;;;;25.70;79.30;;;;;;4965786;28;20460;-83
2022/06/21 15:24:32;;;;;;;;;;;25.70;79.20;;;;;;4962685;28;20025;-83
2022/06/21 15:27:03;;;;;;;;;;;25.70;78.90;;;;;;4949790;28;20301;-83
2022/06/21 15:29:32;;;;;;;;;;;25.70;78.80;;;;;;4966546;28;20299;-83
2022/06/21 15:32:03;;;;;;;;;;;25.80;78.70;;;;;;4965424;28;20293;-83
2022/06/21 15:34:32;;;;;;;;;;;25.80;78.70;;;;;;4948100;28;20246;-83
2022/06/21 15:37:00;;;;;;;;;;;25.70;78.70;;;;;;4963679;28;19931;-83
2022/06/21 15:39:33;;;;;;;;;;;25.80;78.70;;;;;;4970862;28;19953;-84
2022/06/21 15:42:04;;;;;;;;;;;25.80;78.50;;;;;;4964790;28;19930;-84
2022/06/21 15:44:36;;;;;;;;;;;25.80;78.70;;;;;;4966232;28;19946;-84
2022/06/21 15:52:39;;;;;;;;;;;25.80;79.50;;;;;;4953571;28;19927;-83
2022/06/21 15:55:11;;;;;;;;;;;25.90;79.30;;;;;;4948612;28;20392;-83
2022/06/21 15:57:42;;;;;;;;;;;25.90;79.40;;;;;;4959069;28;19976;-84
2022/06/21 16:00:15;;;;;;;;;;;25.90;79.60;;;;;;4963745;28;19954;-83
2022/06/21 16:02:46;;;;;;;;;;;26.00;80.00;;;;;;4968306;28;19927;-83
2022/06/21 16:05:19;;;;;;;;;;;26.00;79.60;;;;;;4963956;28;20017;-83
2022/06/21 16:07:47;;;;;;;;;;;26.00;79.90;;;;;;4963388;28;20351;-84
2022/06/21 16:10:20;;;;;;;;;;;26.00;79.90;;;;;;4964460;28;19974;-83
2022/06/21 16:12:51;;;;;;;;;;;26.00;79.70;;;;;;4962754;28;20307;-83
2022/06/21 16:15:20;;;;;;;;;;;26.10;79.60;;;;;;4966804;28;20052;-83
2022/06/21 16:17:48;;;;;;;;;;;26.10;79.60;;;;;;4966022;28;19937;-83
2022/06/21 16:20:17;;;;;;;;;;;26.10;79.30;;;;;;4966120;28;19969;-83
2022/06/21 16:22:49;;;;;;;;;;;26.20;79.20;;;;;;5037344;28;19950;-84
2022/06/21 16:25:21;;;;;;;;;;;26.20;79.20;;;;;;4964502;28;19927;-83
2022/06/21 16:27:53;;;;;;;;;;;26.20;78.90;;;;;;4959317;28;19926;-83
2022/06/21 16:30:24;;;;;;;;;;;26.20;78.60;;;;;;4949535;28;19930;-84
2022/06/21 16:33:12;;;;;;;;;;;26.20;78.50;;;;;;4963692;28;19930;-84
2022/06/21 16:35:45;;;;;;;;;;;26.20;78.60;;;;;;4970139;28;19922;-83
2022/06/21 16:38:16;;;;;;;;;;;26.20;78.30;;;;;;4960812;28;19930;-83
2022/06/21 16:43:40;;;;;;;;;;;26.30;78.20;;;;;;4964783;28;19922;-83
2022/06/21 16:46:11;;;;;;;;;;;26.40;78.20;;;;;;4962246;28;19979;-83
2022/06/21 16:48:44;;;;;;;;;;;26.40;78.20;;;;;;4967441;28;19961;-83